sensor_id;sensor_type;location;lat;lon;timestamp;P1;durP1;ratioP1;P2;durP2;ratioP2
67140;SDS011;54058;52.010;5.546;2023-08-20T00:00:09;13.73;;;6.38;;
67140;SDS011;54058;52.010;5.546;2023-08-20T00:02:35;9.00;;;5.22;;
67140;SDS011;54058;52.010;5.546;2023-08-20T00:05:03;11.82;;;4.95;;
67140;SDS011;54058;52.010;5.546;2023-08-20T00:09:58;8.57;;;4.38;;
67140;SDS011;54058;52.010;5.546;2023-08-20T00:12:24;11.63;;;5.10;;
67140;SDS011;54058;52.010;5.546;2023-08-20T00:17:23;8.45;;;4.00;;
67140;SDS011;54058;52.010;5.546;2023-08-20T00:19:52;7.85;;;3.90;;
67140;SDS011;54058;52.010;5.546;2023-08-20T00:22:19;8.18;;;4.03;;
67140;SDS011;54058;52.010;5.546;2023-08-20T00:24:47;9.68;;;3.85;;
67140;SDS011;54058;52.010;5.546;2023-08-20T00:27:13;7.07;;;3.53;;
67140;SDS011;54058;52.010;5.546;2023-08-20T00:29:38;9.13;;;3.30;;
67140;SDS011;54058;52.010;5.546;2023-08-20T00:32:04;7.83;;;3.40;;
67140;SDS011;54058;52.010;5.546;2023-08-20T00:34:30;9.13;;;3.17;;
67140;SDS011;54058;52.010;5.546;2023-08-20T00:36:55;9.80;;;3.07;;
67140;SDS011;54058;52.010;5.546;2023-08-20T00:39:21;11.30;;;3.57;;
67140;SDS011;54058;52.010;5.546;2023-08-20T00:41:47;4.97;;;2.90;;
67140;SDS011;54058;52.010;5.546;2023-08-20T00:44:12;6.37;;;2.80;;
67140;SDS011;54058;52.010;5.546;2023-08-20T00:46:38;5.63;;;2.70;;
67140;SDS011;54058;52.010;5.546;2023-08-20T00:49:04;9.23;;;3.00;;
67140;SDS011;54058;52.010;5.546;2023-08-20T00:51:32;5.45;;;2.70;;
67140;SDS011;54058;52.010;5.546;2023-08-20T00:53:58;4.88;;;2.70;;
67140;SDS011;54058;52.010;5.546;2023-08-20T00:56:25;6.38;;;2.72;;
67140;SDS011;54058;52.010;5.546;2023-08-20T00:58:52;6.50;;;2.20;;
67140;SDS011;54058;52.010;5.546;2023-08-20T01:01:19;6.32;;;2.88;;
67140;SDS011;54058;52.010;5.546;2023-08-20T01:03:45;6.30;;;2.80;;
67140;SDS011;54058;52.010;5.546;2023-08-20T01:06:20;5.38;;;2.70;;
67140;SDS011;54058;52.010;5.546;2023-08-20T01:12:16;6.22;;;2.35;;
67140;SDS011;54058;52.010;5.546;2023-08-20T01:14:43;5.18;;;2.58;;
67140;SDS011;54058;52.010;5.546;2023-08-20T01:17:08;7.67;;;2.50;;
67140;SDS011;54058;52.010;5.546;2023-08-20T01:19:34;5.47;;;2.80;;
67140;SDS011;54058;52.010;5.546;2023-08-20T01:30:28;4.97;;;2.30;;
67140;SDS011;54058;52.010;5.546;2023-08-20T01:32:56;6.70;;;2.65;;
67140;SDS011;54058;52.010;5.546;2023-08-20T01:35:24;5.53;;;2.58;;
67140;SDS011;54058;52.010;5.546;2023-08-20T01:37:53;8.77;;;2.63;;
67140;SDS011;54058;52.010;5.546;2023-08-20T01:40:18;8.90;;;3.40;;
67140;SDS011;54058;52.010;5.546;2023-08-20T01:42:44;8.15;;;2.90;;
67140;SDS011;54058;52.010;5.546;2023-08-20T01:45:10;7.33;;;2.97;;
67140;SDS011;54058;52.010;5.546;2023-08-20T01:47:35;5.50;;;3.23;;
67140;SDS011;54058;52.010;5.546;2023-08-20T01:50:02;6.17;;;3.30;;
67140;SDS011;54058;52.010;5.546;2023-08-20T01:52:28;6.20;;;3.40;;
67140;SDS011;54058;52.010;5.546;2023-08-20T01:54:54;7.47;;;3.78;;
67140;SDS011;54058;52.010;5.546;2023-08-20T01:57:20;7.43;;;3.90;;
67140;SDS011;54058;52.010;5.546;2023-08-20T01:59:47;11.15;;;4.13;;
67140;SDS011;54058;52.010;5.546;2023-08-20T02:04:38;8.17;;;3.37;;
67140;SDS011;54058;52.010;5.546;2023-08-20T02:07:04;7.30;;;3.40;;
67140;SDS011;54058;52.010;5.546;2023-08-20T02:09:30;8.30;;;3.55;;
67140;SDS011;54058;52.010;5.546;2023-08-20T02:11:56;7.87;;;3.30;;
67140;SDS011;54058;52.010;5.546;2023-08-20T02:14:22;6.07;;;3.55;;
67140;SDS011;54058;52.010;5.546;2023-08-20T02:16:47;6.27;;;3.20;;
67140;SDS011;54058;52.010;5.546;2023-08-20T02:19:13;8.90;;;3.47;;
67140;SDS011;54058;52.010;5.546;2023-08-20T02:21:39;9.97;;;3.97;;
67140;SDS011;54058;52.010;5.546;2023-08-20T02:24:05;5.90;;;3.70;;
67140;SDS011;54058;52.010;5.546;2023-08-20T02:26:31;11.43;;;4.28;;
67140;SDS011;54058;52.010;5.546;2023-08-20T02:28:57;8.73;;;3.53;;
67140;SDS011;54058;52.010;5.546;2023-08-20T02:31:23;8.40;;;3.33;;
67140;SDS011;54058;52.010;5.546;2023-08-20T02:33:48;10.03;;;3.83;;
67140;SDS011;54058;52.010;5.546;2023-08-20T02:36:14;4.95;;;3.35;;
67140;SDS011;54058;52.010;5.546;2023-08-20T02:38:40;14.27;;;4.38;;
67140;SDS011;54058;52.010;5.546;2023-08-20T02:41:06;11.40;;;4.05;;
67140;SDS011;54058;52.010;5.546;2023-08-20T02:43:31;11.57;;;4.23;;
67140;SDS011;54058;52.010;5.546;2023-08-20T02:45:57;9.17;;;3.90;;
67140;SDS011;54058;52.010;5.546;2023-08-20T02:48:23;14.43;;;4.27;;
67140;SDS011;54058;52.010;5.546;2023-08-20T02:50:55;11.32;;;4.25;;
67140;SDS011;54058;52.010;5.546;2023-08-20T02:53:21;5.45;;;3.10;;
67140;SDS011;54058;52.010;5.546;2023-08-20T02:55:48;9.38;;;4.00;;
67140;SDS011;54058;52.010;5.546;2023-08-20T02:58:14;9.77;;;4.07;;
67140;SDS011;54058;52.010;5.546;2023-08-20T03:00:40;9.30;;;4.20;;
67140;SDS011;54058;52.010;5.546;2023-08-20T03:03:07;10.73;;;3.97;;
67140;SDS011;54058;52.010;5.546;2023-08-20T03:05:34;9.02;;;4.07;;
67140;SDS011;54058;52.010;5.546;2023-08-20T03:08:00;9.23;;;3.65;;
67140;SDS011;54058;52.010;5.546;2023-08-20T03:10:27;7.70;;;3.63;;
67140;SDS011;54058;52.010;5.546;2023-08-20T03:12:53;9.68;;;3.88;;
67140;SDS011;54058;52.010;5.546;2023-08-20T03:15:18;8.90;;;4.80;;
67140;SDS011;54058;52.010;5.546;2023-08-20T03:17:44;8.77;;;4.28;;
67140;SDS011;54058;52.010;5.546;2023-08-20T03:20:10;10.98;;;3.72;;
67140;SDS011;54058;52.010;5.546;2023-08-20T03:22:36;9.30;;;4.63;;
67140;SDS011;54058;52.010;5.546;2023-08-20T03:25:02;7.95;;;3.90;;
67140;SDS011;54058;52.010;5.546;2023-08-20T03:27:29;8.25;;;4.10;;
67140;SDS011;54058;52.010;5.546;2023-08-20T03:29:55;6.07;;;3.83;;
67140;SDS011;54058;52.010;5.546;2023-08-20T03:32:21;7.53;;;3.55;;
67140;SDS011;54058;52.010;5.546;2023-08-20T03:34:47;6.73;;;3.77;;
67140;SDS011;54058;52.010;5.546;2023-08-20T03:37:13;8.95;;;4.30;;
67140;SDS011;54058;52.010;5.546;2023-08-20T03:39:38;5.82;;;3.80;;
67140;SDS011;54058;52.010;5.546;2023-08-20T03:42:04;7.60;;;3.92;;
67140;SDS011;54058;52.010;5.546;2023-08-20T03:44:30;6.10;;;4.05;;
67140;SDS011;54058;52.010;5.546;2023-08-20T03:46:56;8.43;;;4.20;;
67140;SDS011;54058;52.010;5.546;2023-08-20T03:49:22;6.20;;;4.20;;
67140;SDS011;54058;52.010;5.546;2023-08-20T03:51:48;8.32;;;4.57;;
67140;SDS011;54058;52.010;5.546;2023-08-20T03:54:14;7.00;;;3.97;;
67140;SDS011;54058;52.010;5.546;2023-08-20T03:56:39;9.60;;;4.20;;
67140;SDS011;54058;52.010;5.546;2023-08-20T03:59:05;7.03;;;3.83;;
67140;SDS011;54058;52.010;5.546;2023-08-20T04:01:31;10.07;;;4.10;;
67140;SDS011;54058;52.010;5.546;2023-08-20T04:03:57;12.35;;;4.60;;
67140;SDS011;54058;52.010;5.546;2023-08-20T04:06:22;8.98;;;4.07;;
67140;SDS011;54058;52.010;5.546;2023-08-20T04:08:48;5.82;;;3.92;;
67140;SDS011;54058;52.010;5.546;2023-08-20T04:11:16;7.88;;;4.15;;
67140;SDS011;54058;52.010;5.546;2023-08-20T04:13:42;9.88;;;4.20;;
67140;SDS011;54058;52.010;5.546;2023-08-20T04:16:08;10.13;;;4.90;;
67140;SDS011;54058;52.010;5.546;2023-08-20T04:18:34;10.47;;;4.67;;
67140;SDS011;54058;52.010;5.546;2023-08-20T04:21:00;15.10;;;4.88;;
67140;SDS011;54058;52.010;5.546;2023-08-20T04:23:26;9.18;;;4.10;;
67140;SDS011;54058;52.010;5.546;2023-08-20T04:25:51;14.55;;;4.78;;
67140;SDS011;54058;52.010;5.546;2023-08-20T04:28:17;13.25;;;5.00;;
67140;SDS011;54058;52.010;5.546;2023-08-20T04:30:43;11.27;;;5.95;;
67140;SDS011;54058;52.010;5.546;2023-08-20T04:33:09;7.30;;;4.75;;
67140;SDS011;54058;52.010;5.546;2023-08-20T04:35:35;13.33;;;5.53;;
67140;SDS011;54058;52.010;5.546;2023-08-20T04:38:01;11.23;;;5.10;;
67140;SDS011;54058;52.010;5.546;2023-08-20T04:40:27;12.18;;;4.65;;
67140;SDS011;54058;52.010;5.546;2023-08-20T04:42:53;14.15;;;5.40;;
67140;SDS011;54058;52.010;5.546;2023-08-20T04:45:18;9.00;;;4.73;;
67140;SDS011;54058;52.010;5.546;2023-08-20T04:47:45;14.00;;;5.30;;
67140;SDS011;54058;52.010;5.546;2023-08-20T04:50:11;7.43;;;4.50;;
67140;SDS011;54058;52.010;5.546;2023-08-20T04:55:04;7.13;;;3.80;;
67140;SDS011;54058;52.010;5.546;2023-08-20T04:57:31;11.25;;;4.93;;
67140;SDS011;54058;52.010;5.546;2023-08-20T04:59:57;9.88;;;4.40;;
67140;SDS011;54058;52.010;5.546;2023-08-20T05:02:22;10.77;;;4.00;;
67140;SDS011;54058;52.010;5.546;2023-08-20T05:04:48;10.82;;;4.25;;
67140;SDS011;54058;52.010;5.546;2023-08-20T05:07:14;9.63;;;4.57;;
67140;SDS011;54058;52.010;5.546;2023-08-20T05:09:39;10.02;;;3.97;;
67140;SDS011;54058;52.010;5.546;2023-08-20T05:12:05;8.33;;;4.57;;
67140;SDS011;54058;52.010;5.546;2023-08-20T05:14:31;10.93;;;4.80;;
67140;SDS011;54058;52.010;5.546;2023-08-20T05:16:57;10.37;;;4.57;;
67140;SDS011;54058;52.010;5.546;2023-08-20T05:19:22;12.65;;;4.82;;
67140;SDS011;54058;52.010;5.546;2023-08-20T05:21:48;11.03;;;4.17;;
67140;SDS011;54058;52.010;5.546;2023-08-20T05:24:14;10.27;;;4.50;;
67140;SDS011;54058;52.010;5.546;2023-08-20T05:26:39;13.37;;;4.17;;
67140;SDS011;54058;52.010;5.546;2023-08-20T05:29:05;8.65;;;3.72;;
67140;SDS011;54058;52.010;5.546;2023-08-20T05:31:30;7.77;;;4.33;;
67140;SDS011;54058;52.010;5.546;2023-08-20T05:33:56;10.87;;;4.23;;
67140;SDS011;54058;52.010;5.546;2023-08-20T05:36:22;15.88;;;5.35;;
67140;SDS011;54058;52.010;5.546;2023-08-20T05:38:48;11.73;;;4.90;;
67140;SDS011;54058;52.010;5.546;2023-08-20T05:41:14;9.50;;;4.50;;
67140;SDS011;54058;52.010;5.546;2023-08-20T05:43:40;8.60;;;4.80;;
67140;SDS011;54058;52.010;5.546;2023-08-20T05:46:05;7.40;;;4.17;;
67140;SDS011;54058;52.010;5.546;2023-08-20T05:48:31;6.00;;;3.57;;
67140;SDS011;54058;52.010;5.546;2023-08-20T05:50:57;11.02;;;4.68;;
67140;SDS011;54058;52.010;5.546;2023-08-20T05:53:22;8.37;;;3.80;;
67140;SDS011;54058;52.010;5.546;2023-08-20T05:55:48;7.73;;;3.40;;
67140;SDS011;54058;52.010;5.546;2023-08-20T05:58:14;10.50;;;3.83;;
67140;SDS011;54058;52.010;5.546;2023-08-20T06:00:40;7.50;;;3.53;;
67140;SDS011;54058;52.010;5.546;2023-08-20T06:03:05;6.37;;;3.17;;
67140;SDS011;54058;52.010;5.546;2023-08-20T06:05:32;10.57;;;3.10;;
67140;SDS011;54058;52.010;5.546;2023-08-20T06:07:59;6.35;;;2.80;;
67140;SDS011;54058;52.010;5.546;2023-08-20T06:10:25;11.77;;;2.93;;
67140;SDS011;54058;52.010;5.546;2023-08-20T06:12:51;13.05;;;3.67;;
67140;SDS011;54058;52.010;5.546;2023-08-20T06:15:17;8.90;;;2.60;;
67140;SDS011;54058;52.010;5.546;2023-08-20T06:17:43;7.60;;;2.90;;
67140;SDS011;54058;52.010;5.546;2023-08-20T06:20:09;6.63;;;2.67;;
67140;SDS011;54058;52.010;5.546;2023-08-20T06:22:36;6.95;;;2.38;;
67140;SDS011;54058;52.010;5.546;2023-08-20T06:25:03;5.07;;;2.25;;
67140;SDS011;54058;52.010;5.546;2023-08-20T06:29:55;11.43;;;3.00;;
67140;SDS011;54058;52.010;5.546;2023-08-20T06:32:21;11.33;;;2.53;;
67140;SDS011;54058;52.010;5.546;2023-08-20T06:34:47;7.93;;;2.30;;
67140;SDS011;54058;52.010;5.546;2023-08-20T06:37:12;7.00;;;2.50;;
67140;SDS011;54058;52.010;5.546;2023-08-20T06:39:38;9.77;;;2.60;;
67140;SDS011;54058;52.010;5.546;2023-08-20T06:42:04;5.77;;;2.07;;
67140;SDS011;54058;52.010;5.546;2023-08-20T06:44:30;5.07;;;1.70;;
67140;SDS011;54058;52.010;5.546;2023-08-20T06:46:56;10.38;;;2.33;;
67140;SDS011;54058;52.010;5.546;2023-08-20T06:49:22;6.73;;;2.10;;
67140;SDS011;54058;52.010;5.546;2023-08-20T06:51:47;9.63;;;2.83;;
67140;SDS011;54058;52.010;5.546;2023-08-20T06:54:14;12.87;;;2.77;;
67140;SDS011;54058;52.010;5.546;2023-08-20T06:56:40;9.25;;;2.28;;
67140;SDS011;54058;52.010;5.546;2023-08-20T06:59:06;12.47;;;2.37;;
67140;SDS011;54058;52.010;5.546;2023-08-20T07:01:32;4.32;;;1.73;;
67140;SDS011;54058;52.010;5.546;2023-08-20T07:03:58;9.52;;;2.47;;
67140;SDS011;54058;52.010;5.546;2023-08-20T07:06:24;8.13;;;2.40;;
67140;SDS011;54058;52.010;5.546;2023-08-20T07:08:50;8.90;;;2.22;;
67140;SDS011;54058;52.010;5.546;2023-08-20T07:11:16;8.73;;;2.27;;
67140;SDS011;54058;52.010;5.546;2023-08-20T07:13:41;7.83;;;2.00;;
67140;SDS011;54058;52.010;5.546;2023-08-20T07:16:07;7.27;;;2.00;;
67140;SDS011;54058;52.010;5.546;2023-08-20T07:18:33;5.65;;;1.65;;
67140;SDS011;54058;52.010;5.546;2023-08-20T07:21:00;5.95;;;1.67;;
67140;SDS011;54058;52.010;5.546;2023-08-20T07:23:25;9.60;;;1.57;;
67140;SDS011;54058;52.010;5.546;2023-08-20T07:25:51;11.27;;;2.20;;
67140;SDS011;54058;52.010;5.546;2023-08-20T07:28:28;7.97;;;2.17;;
67140;SDS011;54058;52.010;5.546;2023-08-20T07:31:14;4.15;;;1.45;;
67140;SDS011;54058;52.010;5.546;2023-08-20T07:33:39;8.27;;;1.73;;
67140;SDS011;54058;52.010;5.546;2023-08-20T07:36:05;8.33;;;1.73;;
67140;SDS011;54058;52.010;5.546;2023-08-20T07:38:30;8.50;;;1.70;;
67140;SDS011;54058;52.010;5.546;2023-08-20T07:40:56;10.10;;;1.80;;
67140;SDS011;54058;52.010;5.546;2023-08-20T07:43:22;4.70;;;1.40;;
67140;SDS011;54058;52.010;5.546;2023-08-20T07:45:49;5.97;;;1.52;;
67140;SDS011;54058;52.010;5.546;2023-08-20T07:48:14;7.23;;;1.47;;
67140;SDS011;54058;52.010;5.546;2023-08-20T07:50:40;5.60;;;1.50;;
67140;SDS011;54058;52.010;5.546;2023-08-20T07:53:05;9.20;;;2.07;;
67140;SDS011;54058;52.010;5.546;2023-08-20T07:55:31;10.20;;;1.80;;
67140;SDS011;54058;52.010;5.546;2023-08-20T07:57:57;5.97;;;1.80;;
67140;SDS011;54058;52.010;5.546;2023-08-20T08:00:23;7.13;;;1.47;;
67140;SDS011;54058;52.010;5.546;2023-08-20T08:02:48;6.47;;;1.70;;
67140;SDS011;54058;52.010;5.546;2023-08-20T08:05:14;5.70;;;1.50;;
67140;SDS011;54058;52.010;5.546;2023-08-20T08:07:40;10.47;;;1.93;;
67140;SDS011;54058;52.010;5.546;2023-08-20T08:10:05;11.37;;;1.70;;
67140;SDS011;54058;52.010;5.546;2023-08-20T08:12:31;6.47;;;1.45;;
67140;SDS011;54058;52.010;5.546;2023-08-20T08:14:57;4.53;;;1.50;;
67140;SDS011;54058;52.010;5.546;2023-08-20T08:17:23;9.53;;;1.53;;
67140;SDS011;54058;52.010;5.546;2023-08-20T08:19:48;4.07;;;1.23;;
67140;SDS011;54058;52.010;5.546;2023-08-20T08:22:14;3.93;;;2.10;;
67140;SDS011;54058;52.010;5.546;2023-08-20T08:24:40;4.60;;;1.30;;
67140;SDS011;54058;52.010;5.546;2023-08-20T08:27:07;5.55;;;1.40;;
67140;SDS011;54058;52.010;5.546;2023-08-20T08:29:33;8.37;;;1.40;;
67140;SDS011;54058;52.010;5.546;2023-08-20T08:31:58;6.97;;;1.37;;
67140;SDS011;54058;52.010;5.546;2023-08-20T08:34:24;6.93;;;1.50;;
67140;SDS011;54058;52.010;5.546;2023-08-20T08:36:50;3.60;;;1.30;;
67140;SDS011;54058;52.010;5.546;2023-08-20T08:39:15;7.93;;;1.77;;
67140;SDS011;54058;52.010;5.546;2023-08-20T08:41:41;4.23;;;1.13;;
67140;SDS011;54058;52.010;5.546;2023-08-20T08:44:08;5.22;;;1.30;;
67140;SDS011;54058;52.010;5.546;2023-08-20T08:46:37;6.90;;;1.25;;
67140;SDS011;54058;52.010;5.546;2023-08-20T08:49:03;5.45;;;1.38;;
67140;SDS011;54058;52.010;5.546;2023-08-20T08:51:30;8.55;;;1.48;;
67140;SDS011;54058;52.010;5.546;2023-08-20T08:56:22;3.67;;;1.13;;
67140;SDS011;54058;52.010;5.546;2023-08-20T08:58:48;4.53;;;1.40;;
67140;SDS011;54058;52.010;5.546;2023-08-20T09:01:13;5.40;;;1.27;;
67140;SDS011;54058;52.010;5.546;2023-08-20T09:03:39;6.90;;;1.83;;
67140;SDS011;54058;52.010;5.546;2023-08-20T09:06:07;4.80;;;1.40;;
67140;SDS011;54058;52.010;5.546;2023-08-20T09:08:34;3.40;;;1.08;;
67140;SDS011;54058;52.010;5.546;2023-08-20T09:11:00;5.43;;;1.70;;
67140;SDS011;54058;52.010;5.546;2023-08-20T09:13:37;2.53;;;0.70;;
67140;SDS011;54058;52.010;5.546;2023-08-20T09:16:08;4.97;;;1.30;;
67140;SDS011;54058;52.010;5.546;2023-08-20T09:18:38;6.72;;;1.02;;
67140;SDS011;54058;52.010;5.546;2023-08-20T09:21:09;4.68;;;1.00;;
67140;SDS011;54058;52.010;5.546;2023-08-20T09:23:36;3.10;;;0.90;;
67140;SDS011;54058;52.010;5.546;2023-08-20T09:26:03;5.18;;;1.17;;
67140;SDS011;54058;52.010;5.546;2023-08-20T09:28:42;4.95;;;0.88;;
67140;SDS011;54058;52.010;5.546;2023-08-20T09:31:09;5.82;;;1.10;;
67140;SDS011;54058;52.010;5.546;2023-08-20T09:33:35;2.90;;;0.82;;
67140;SDS011;54058;52.010;5.546;2023-08-20T09:36:04;3.88;;;0.90;;
67140;SDS011;54058;52.010;5.546;2023-08-20T09:38:35;4.03;;;0.80;;
67140;SDS011;54058;52.010;5.546;2023-08-20T09:41:03;3.33;;;1.17;;
67140;SDS011;54058;52.010;5.546;2023-08-20T09:43:30;5.20;;;1.15;;
67140;SDS011;54058;52.010;5.546;2023-08-20T09:45:57;2.60;;;1.10;;
67140;SDS011;54058;52.010;5.546;2023-08-20T09:48:27;4.95;;;0.98;;
67140;SDS011;54058;52.010;5.546;2023-08-20T09:50:59;5.00;;;1.02;;
67140;SDS011;54058;52.010;5.546;2023-08-20T09:56:01;3.85;;;1.48;;
67140;SDS011;54058;52.010;5.546;2023-08-20T09:58:34;5.30;;;1.13;;
67140;SDS011;54058;52.010;5.546;2023-08-20T10:01:02;3.53;;;1.30;;
67140;SDS011;54058;52.010;5.546;2023-08-20T10:03:28;4.88;;;0.82;;
67140;SDS011;54058;52.010;5.546;2023-08-20T10:05:55;3.95;;;0.68;;
67140;SDS011;54058;52.010;5.546;2023-08-20T10:08:23;3.00;;;1.00;;
67140;SDS011;54058;52.010;5.546;2023-08-20T10:13:15;2.97;;;1.00;;
67140;SDS011;54058;52.010;5.546;2023-08-20T10:15:41;2.28;;;0.80;;
67140;SDS011;54058;52.010;5.546;2023-08-20T10:18:07;4.10;;;1.00;;
67140;SDS011;54058;52.010;5.546;2023-08-20T10:20:33;3.90;;;1.15;;
67140;SDS011;54058;52.010;5.546;2023-08-20T10:23:00;3.25;;;0.90;;
67140;SDS011;54058;52.010;5.546;2023-08-20T10:25:29;3.40;;;1.10;;
67140;SDS011;54058;52.010;5.546;2023-08-20T10:28:10;5.57;;;1.20;;
67140;SDS011;54058;52.010;5.546;2023-08-20T10:31:13;7.30;;;1.10;;
67140;SDS011;54058;52.010;5.546;2023-08-20T10:36:16;3.38;;;1.02;;
67140;SDS011;54058;52.010;5.546;2023-08-20T10:38:47;5.55;;;1.00;;
67140;SDS011;54058;52.010;5.546;2023-08-20T10:41:15;5.90;;;1.20;;
67140;SDS011;54058;52.010;5.546;2023-08-20T10:43:47;4.70;;;1.10;;
67140;SDS011;54058;52.010;5.546;2023-08-20T10:46:24;2.58;;;0.80;;
67140;SDS011;54058;52.010;5.546;2023-08-20T10:48:54;2.65;;;0.80;;
67140;SDS011;54058;52.010;5.546;2023-08-20T10:51:37;5.28;;;1.00;;
67140;SDS011;54058;52.010;5.546;2023-08-20T10:54:05;2.72;;;0.90;;
67140;SDS011;54058;52.010;5.546;2023-08-20T10:56:48;3.10;;;0.80;;
67140;SDS011;54058;52.010;5.546;2023-08-20T10:59:27;2.40;;;0.77;;
67140;SDS011;54058;52.010;5.546;2023-08-20T11:01:57;2.47;;;0.88;;
67140;SDS011;54058;52.010;5.546;2023-08-20T11:04:32;5.05;;;0.80;;
67140;SDS011;54058;52.010;5.546;2023-08-20T11:06:58;2.63;;;0.82;;
67140;SDS011;54058;52.010;5.546;2023-08-20T11:09:25;3.78;;;0.82;;
67140;SDS011;54058;52.010;5.546;2023-08-20T11:11:52;3.47;;;0.98;;
67140;SDS011;54058;52.010;5.546;2023-08-20T11:14:19;2.70;;;0.80;;
67140;SDS011;54058;52.010;5.546;2023-08-20T11:16:46;3.92;;;0.80;;
67140;SDS011;54058;52.010;5.546;2023-08-20T11:19:14;4.38;;;1.15;;
67140;SDS011;54058;52.010;5.546;2023-08-20T11:21:42;3.65;;;0.95;;
67140;SDS011;54058;52.010;5.546;2023-08-20T11:24:09;3.15;;;0.82;;
67140;SDS011;54058;52.010;5.546;2023-08-20T11:26:35;4.57;;;1.08;;
67140;SDS011;54058;52.010;5.546;2023-08-20T11:29:07;2.47;;;0.77;;
67140;SDS011;54058;52.010;5.546;2023-08-20T11:31:46;4.35;;;1.02;;
67140;SDS011;54058;52.010;5.546;2023-08-20T11:34:12;2.70;;;0.88;;
67140;SDS011;54058;52.010;5.546;2023-08-20T11:36:39;2.30;;;0.88;;
67140;SDS011;54058;52.010;5.546;2023-08-20T11:39:05;4.78;;;1.20;;
67140;SDS011;54058;52.010;5.546;2023-08-20T11:41:35;4.78;;;0.93;;
67140;SDS011;54058;52.010;5.546;2023-08-20T11:44:01;3.42;;;0.68;;
67140;SDS011;54058;52.010;5.546;2023-08-20T11:46:28;4.53;;;1.20;;
67140;SDS011;54058;52.010;5.546;2023-08-20T11:51:29;2.95;;;0.88;;
67140;SDS011;54058;52.010;5.546;2023-08-20T11:56:22;2.42;;;0.80;;
67140;SDS011;54058;52.010;5.546;2023-08-20T11:58:51;3.20;;;0.65;;
67140;SDS011;54058;52.010;5.546;2023-08-20T12:01:18;1.38;;;0.70;;
67140;SDS011;54058;52.010;5.546;2023-08-20T12:03:44;3.97;;;0.90;;
67140;SDS011;54058;52.010;5.546;2023-08-20T12:06:19;4.07;;;0.88;;
67140;SDS011;54058;52.010;5.546;2023-08-20T12:13:37;6.07;;;0.95;;
67140;SDS011;54058;52.010;5.546;2023-08-20T12:16:03;3.22;;;0.95;;
67140;SDS011;54058;52.010;5.546;2023-08-20T12:18:29;2.38;;;0.85;;
67140;SDS011;54058;52.010;5.546;2023-08-20T12:20:54;2.58;;;0.68;;
67140;SDS011;54058;52.010;5.546;2023-08-20T12:23:20;4.40;;;1.05;;
67140;SDS011;54058;52.010;5.546;2023-08-20T12:25:49;2.15;;;0.68;;
67140;SDS011;54058;52.010;5.546;2023-08-20T12:28:16;3.40;;;1.00;;
67140;SDS011;54058;52.010;5.546;2023-08-20T12:33:08;2.60;;;0.70;;
67140;SDS011;54058;52.010;5.546;2023-08-20T12:35:34;4.68;;;1.00;;
67140;SDS011;54058;52.010;5.546;2023-08-20T12:38:00;2.60;;;0.85;;
67140;SDS011;54058;52.010;5.546;2023-08-20T12:40:26;2.88;;;0.80;;
67140;SDS011;54058;52.010;5.546;2023-08-20T12:42:51;3.97;;;0.90;;
67140;SDS011;54058;52.010;5.546;2023-08-20T12:45:17;3.47;;;0.73;;
67140;SDS011;54058;52.010;5.546;2023-08-20T12:47:43;3.75;;;0.95;;
67140;SDS011;54058;52.010;5.546;2023-08-20T12:50:08;2.50;;;0.93;;
67140;SDS011;54058;52.010;5.546;2023-08-20T12:52:35;3.20;;;0.93;;
67140;SDS011;54058;52.010;5.546;2023-08-20T12:55:01;3.43;;;0.93;;
67140;SDS011;54058;52.010;5.546;2023-08-20T12:57:28;4.05;;;1.10;;
67140;SDS011;54058;52.010;5.546;2023-08-20T12:59:53;3.60;;;0.80;;
67140;SDS011;54058;52.010;5.546;2023-08-20T13:02:19;3.83;;;0.80;;
67140;SDS011;54058;52.010;5.546;2023-08-20T13:04:45;2.90;;;1.02;;
67140;SDS011;54058;52.010;5.546;2023-08-20T13:07:12;2.80;;;1.00;;
67140;SDS011;54058;52.010;5.546;2023-08-20T13:14:30;3.30;;;1.15;;
67140;SDS011;54058;52.010;5.546;2023-08-20T13:16:56;2.70;;;0.95;;
67140;SDS011;54058;52.010;5.546;2023-08-20T13:19:22;3.53;;;0.80;;
67140;SDS011;54058;52.010;5.546;2023-08-20T13:21:48;3.20;;;0.90;;
67140;SDS011;54058;52.010;5.546;2023-08-20T13:24:13;2.77;;;1.00;;
67140;SDS011;54058;52.010;5.546;2023-08-20T13:26:39;3.38;;;0.90;;
67140;SDS011;54058;52.010;5.546;2023-08-20T13:29:05;2.90;;;1.20;;
67140;SDS011;54058;52.010;5.546;2023-08-20T13:31:30;3.85;;;0.80;;
67140;SDS011;54058;52.010;5.546;2023-08-20T13:33:56;4.75;;;1.50;;
67140;SDS011;54058;52.010;5.546;2023-08-20T13:36:22;2.65;;;1.00;;
67140;SDS011;54058;52.010;5.546;2023-08-20T13:38:47;2.45;;;0.80;;
67140;SDS011;54058;52.010;5.546;2023-08-20T13:41:13;1.83;;;0.80;;
67140;SDS011;54058;52.010;5.546;2023-08-20T13:43:38;2.70;;;0.90;;
67140;SDS011;54058;52.010;5.546;2023-08-20T13:46:04;5.50;;;0.77;;
67140;SDS011;54058;52.010;5.546;2023-08-20T13:48:30;4.70;;;1.13;;
67140;SDS011;54058;52.010;5.546;2023-08-20T13:50:55;5.63;;;1.10;;
67140;SDS011;54058;52.010;5.546;2023-08-20T13:53:21;2.90;;;0.90;;
67140;SDS011;54058;52.010;5.546;2023-08-20T13:55:47;3.23;;;1.13;;
67140;SDS011;54058;52.010;5.546;2023-08-20T13:58:12;2.42;;;0.90;;
67140;SDS011;54058;52.010;5.546;2023-08-20T14:00:38;6.40;;;1.27;;
67140;SDS011;54058;52.010;5.546;2023-08-20T14:03:04;3.75;;;0.85;;
67140;SDS011;54058;52.010;5.546;2023-08-20T14:05:30;2.38;;;0.93;;
67140;SDS011;54058;52.010;5.546;2023-08-20T14:07:55;4.60;;;0.90;;
67140;SDS011;54058;52.010;5.546;2023-08-20T14:10:21;3.58;;;0.95;;
67140;SDS011;54058;52.010;5.546;2023-08-20T14:12:47;5.10;;;1.38;;
67140;SDS011;54058;52.010;5.546;2023-08-20T14:15:13;9.68;;;1.73;;
67140;SDS011;54058;52.010;5.546;2023-08-20T14:17:39;3.38;;;1.13;;
67140;SDS011;54058;52.010;5.546;2023-08-20T14:20:05;4.03;;;1.00;;
67140;SDS011;54058;52.010;5.546;2023-08-20T14:22:33;3.25;;;0.88;;
67140;SDS011;54058;52.010;5.546;2023-08-20T14:24:58;4.95;;;1.08;;
67140;SDS011;54058;52.010;5.546;2023-08-20T14:27:24;5.07;;;0.97;;
67140;SDS011;54058;52.010;5.546;2023-08-20T14:29:49;6.93;;;1.40;;
67140;SDS011;54058;52.010;5.546;2023-08-20T14:32:15;4.72;;;1.10;;
67140;SDS011;54058;52.010;5.546;2023-08-20T14:34:41;4.40;;;0.98;;
67140;SDS011;54058;52.010;5.546;2023-08-20T14:37:06;3.33;;;0.98;;
67140;SDS011;54058;52.010;5.546;2023-08-20T14:39:32;4.18;;;0.90;;
67140;SDS011;54058;52.010;5.546;2023-08-20T14:41:58;3.90;;;0.98;;
67140;SDS011;54058;52.010;5.546;2023-08-20T14:44:24;2.30;;;1.08;;
67140;SDS011;54058;52.010;5.546;2023-08-20T14:46:49;8.20;;;1.40;;
67140;SDS011;54058;52.010;5.546;2023-08-20T14:49:16;2.28;;;0.63;;
67140;SDS011;54058;52.010;5.546;2023-08-20T14:51:43;5.15;;;1.25;;
67140;SDS011;54058;52.010;5.546;2023-08-20T14:54:09;5.00;;;1.35;;
67140;SDS011;54058;52.010;5.546;2023-08-20T14:56:34;3.03;;;1.00;;
67140;SDS011;54058;52.010;5.546;2023-08-20T14:59:00;2.37;;;0.90;;
67140;SDS011;54058;52.010;5.546;2023-08-20T15:01:26;3.10;;;0.95;;
67140;SDS011;54058;52.010;5.546;2023-08-20T15:03:51;4.15;;;1.10;;
67140;SDS011;54058;52.010;5.546;2023-08-20T15:06:17;4.37;;;1.10;;
67140;SDS011;54058;52.010;5.546;2023-08-20T15:08:46;5.05;;;1.20;;
67140;SDS011;54058;52.010;5.546;2023-08-20T15:11:12;3.70;;;1.10;;
67140;SDS011;54058;52.010;5.546;2023-08-20T15:13:37;3.90;;;1.20;;
67140;SDS011;54058;52.010;5.546;2023-08-20T15:16:03;4.40;;;1.33;;
67140;SDS011;54058;52.010;5.546;2023-08-20T15:18:29;4.25;;;1.08;;
67140;SDS011;54058;52.010;5.546;2023-08-20T15:20:58;5.05;;;1.23;;
67140;SDS011;54058;52.010;5.546;2023-08-20T15:23:25;3.35;;;1.05;;
67140;SDS011;54058;52.010;5.546;2023-08-20T15:25:51;6.63;;;1.17;;
67140;SDS011;54058;52.010;5.546;2023-08-20T15:28:18;4.63;;;1.27;;
67140;SDS011;54058;52.010;5.546;2023-08-20T15:35:36;3.30;;;1.10;;
67140;SDS011;54058;52.010;5.546;2023-08-20T15:38:01;5.57;;;1.43;;